Fairbury, Illinois
Current Conditions -  °F | °C
As of 1:35 AM on Saturday 25 Oct 2014 (Local Time) from KPNT Reporting Station
Overcast Overcast  
Wind Chill: 61°   Ceiling: 2700
Heat Index: 61°   Visibility: 10mi
Dew Point: 54°   Wind: 7mph
Humidity: 77%   Direction: 230°SW
Pressure: 29.94"   Gusts: NA
Location:  40.75°N, 88.51°W
Report Text: KPNT 250635Z AUTO 23006KT 10SM BKN027 OVC041 16/12 A2994 RMK AO2 T01600120
Loading
Personal Weather Stations






























Interactive Weather Map New forecast layout! Learn more

10-Day Weather Forecast

Advertisements
Track Severe Weather on mobile